createdAt,value
2018-05-03T00:00:06.007Z,0
2018-05-03T00:00:46.474Z,0
2018-05-03T00:01:26.983Z,0
2018-05-03T00:02:07.503Z,0
2018-05-03T00:02:47.954Z,0
2018-05-03T00:03:28.434Z,0
2018-05-03T00:04:08.931Z,0
2018-05-03T00:04:49.430Z,0
2018-05-03T00:05:29.884Z,0
2018-05-03T00:06:10.392Z,0
2018-05-03T00:06:50.852Z,0
2018-05-03T00:07:31.428Z,0
2018-05-03T00:08:12.662Z,0
2018-05-03T00:08:53.154Z,0
2018-05-03T00:09:33.645Z,0
2018-05-03T00:10:14.128Z,0
2018-05-03T00:10:54.643Z,0
2018-05-03T00:11:35.095Z,0
2018-05-03T00:12:15.637Z,0
2018-05-03T00:12:56.871Z,0
2018-05-03T00:13:36.587Z,0
2018-05-03T00:14:17.132Z,0
2018-05-03T00:14:57.579Z,0
2018-05-03T00:15:38.067Z,0
2018-05-03T00:16:18.562Z,0
2018-05-03T00:16:59.056Z,0
2018-05-03T00:17:40.135Z,0
2018-05-03T00:18:20.713Z,0
2018-05-03T00:19:01.161Z,0
2018-05-03T00:19:42.525Z,0
2018-05-03T00:20:23.000Z,0
2018-05-03T00:21:03.497Z,0
2018-05-03T00:21:44.019Z,0
2018-05-03T00:22:26.383Z,0
2018-05-03T00:23:05.948Z,0
2018-05-03T00:23:46.452Z,0
2018-05-03T00:24:26.954Z,0
2018-05-03T00:25:07.690Z,0
2018-05-03T00:25:48.201Z,0
2018-05-03T00:26:28.706Z,0
2018-05-03T00:27:09.218Z,0
2018-05-03T00:27:49.672Z,0
2018-05-03T00:28:30.874Z,0
2018-05-03T00:29:10.672Z,0
2018-05-03T00:29:51.140Z,0
2018-05-03T00:30:31.637Z,0
2018-05-03T00:31:12.136Z,0
2018-05-03T00:31:52.654Z,0
2018-05-03T00:32:33.132Z,0
2018-05-03T00:33:13.658Z,0
2018-05-03T00:33:54.107Z,0
2018-05-03T00:34:34.585Z,0
2018-05-03T00:35:15.097Z,0
2018-05-03T00:35:55.615Z,0
2018-05-03T00:36:36.167Z,0
2018-05-03T00:37:16.592Z,0
2018-05-03T00:37:57.085Z,0
2018-05-03T00:38:37.555Z,0
2018-05-03T00:39:18.072Z,0
2018-05-03T00:39:58.556Z,0
2018-05-03T00:40:39.040Z,0
2018-05-03T00:41:19.552Z,0
2018-05-03T00:42:00.063Z,0
2018-05-03T00:42:40.552Z,0
2018-05-03T00:43:21.002Z,0
2018-05-03T00:44:01.546Z,0
2018-05-03T00:44:42.017Z,0
2018-05-03T00:45:22.486Z,0
2018-05-03T00:46:02.998Z,0
2018-05-03T00:46:43.488Z,0
2018-05-03T00:47:23.991Z,0
2018-05-03T00:48:04.466Z,0
2018-05-03T00:48:44.996Z,0
2018-05-03T00:49:25.469Z,0
2018-05-03T00:50:06.005Z,0
2018-05-03T00:50:46.489Z,0
2018-05-03T00:51:26.980Z,0
2018-05-03T00:52:07.520Z,0
2018-05-03T00:52:47.956Z,0
2018-05-03T00:53:28.445Z,0
2018-05-03T00:54:08.917Z,0
2018-05-03T00:54:49.419Z,0
2018-05-03T00:55:29.917Z,0
2018-05-03T00:56:10.447Z,0
2018-05-03T00:56:50.898Z,0
2018-05-03T00:57:31.403Z,0
2018-05-03T00:58:12.226Z,0
2018-05-03T00:58:52.744Z,0
2018-05-03T00:59:33.249Z,0
2018-05-03T01:00:13.743Z,0
2018-05-03T01:00:54.223Z,0
2018-05-03T01:01:34.780Z,0
2018-05-03T01:02:15.248Z,0
2018-05-03T01:02:55.769Z,0
2018-05-03T01:03:36.228Z,0
2018-05-03T01:04:16.732Z,0
2018-05-03T01:04:57.208Z,0
2018-05-03T01:05:37.722Z,0
2018-05-03T01:06:18.223Z,0
2018-05-03T01:06:58.700Z,0
2018-05-03T01:07:39.216Z,0
2018-05-03T01:08:19.713Z,0
2018-05-03T01:09:00.216Z,0
2018-05-03T01:09:40.700Z,0
2018-05-03T01:10:21.197Z,0
2018-05-03T01:11:01.745Z,0
2018-05-03T01:11:42.201Z,0
2018-05-03T01:12:22.686Z,0
2018-05-03T01:13:03.188Z,0
2018-05-03T01:13:43.674Z,0
2018-05-03T01:14:24.187Z,0
2018-05-03T01:15:04.680Z,0
2018-05-03T01:15:45.176Z,0
2018-05-03T01:16:25.645Z,0
2018-05-03T01:17:06.158Z,0
2018-05-03T01:17:46.648Z,0
2018-05-03T01:18:27.134Z,0
2018-05-03T01:19:07.661Z,0
2018-05-03T01:19:48.109Z,0
2018-05-03T01:20:28.614Z,0
2018-05-03T01:21:09.102Z,0
2018-05-03T01:21:49.566Z,0
2018-05-03T01:22:30.085Z,0
2018-05-03T01:23:10.569Z,0
2018-05-03T01:23:51.040Z,0
2018-05-03T01:24:31.531Z,0
2018-05-03T01:25:12.023Z,0
2018-05-03T01:25:52.542Z,0
2018-05-03T01:26:33.000Z,0
2018-05-03T01:27:13.490Z,0
2018-05-03T01:27:53.987Z,0
2018-05-03T01:28:34.491Z,0
2018-05-03T01:29:14.990Z,0
2018-05-03T01:29:55.477Z,0
2018-05-03T01:30:36.887Z,0
2018-05-03T01:31:16.466Z,0
2018-05-03T01:31:56.966Z,0
2018-05-03T01:32:37.457Z,0
2018-05-03T01:33:17.972Z,0
2018-05-03T01:33:58.429Z,0
2018-05-03T01:34:38.955Z,0
2018-05-03T01:35:20.014Z,0
2018-05-03T01:36:00.517Z,0
2018-05-03T01:36:41.012Z,0
2018-05-03T01:37:22.459Z,0
2018-05-03T01:38:02.986Z,0
2018-05-03T01:38:43.449Z,0
2018-05-03T01:39:23.963Z,0
2018-05-03T01:40:04.465Z,0
2018-05-03T01:40:44.965Z,0
2018-05-03T01:41:25.459Z,0
2018-05-03T01:42:05.934Z,0
2018-05-03T01:42:46.444Z,0
2018-05-03T01:43:26.941Z,0
2018-05-03T01:44:07.443Z,0
2018-05-03T01:44:47.936Z,0
2018-05-03T01:45:28.524Z,0
2018-05-03T01:46:09.054Z,0
2018-05-03T01:46:49.532Z,0
2018-05-03T01:47:30.018Z,0
2018-05-03T01:48:10.520Z,0
2018-05-03T01:48:51.005Z,0
2018-05-03T01:49:31.491Z,0
2018-05-03T01:50:12.016Z,0
2018-05-03T01:50:52.464Z,0
2018-05-03T01:51:32.969Z,0
2018-05-03T01:52:13.463Z,0
2018-05-03T01:52:53.958Z,0
2018-05-03T01:53:34.453Z,0
2018-05-03T01:54:14.964Z,0
2018-05-03T01:54:55.448Z,0
2018-05-03T01:55:35.964Z,0
2018-05-03T01:56:16.418Z,0
2018-05-03T01:56:56.928Z,0
2018-05-03T01:57:37.431Z,0
2018-05-03T01:58:17.914Z,0
2018-05-03T01:58:58.423Z,0
2018-05-03T01:59:38.914Z,0
2018-05-03T02:00:19.429Z,0
2018-05-03T02:00:59.946Z,0
2018-05-03T02:01:40.435Z,0
2018-05-03T02:02:20.922Z,0
2018-05-03T02:03:01.412Z,0
2018-05-03T02:03:41.903Z,0
2018-05-03T02:04:22.431Z,0
2018-05-03T02:05:02.891Z,0
2018-05-03T02:05:43.459Z,0
2018-05-03T02:06:23.905Z,0
2018-05-03T02:07:04.432Z,0
2018-05-03T02:07:44.900Z,0
2018-05-03T02:08:25.381Z,0
2018-05-03T02:09:05.908Z,0
2018-05-03T02:09:46.379Z,0
2018-05-03T02:10:26.878Z,0
2018-05-03T02:11:07.487Z,0
2018-05-03T02:11:47.877Z,0
2018-05-03T02:12:28.388Z,0
2018-05-03T02:13:08.875Z,0
2018-05-03T02:13:49.334Z,0
2018-05-03T02:14:29.852Z,0
2018-05-03T02:15:10.328Z,0
2018-05-03T02:15:50.806Z,0
2018-05-03T02:16:31.363Z,0
2018-05-03T02:17:11.864Z,0
2018-05-03T02:17:52.346Z,0
2018-05-03T02:18:32.852Z,0
2018-05-03T02:19:13.365Z,0
2018-05-03T02:19:53.860Z,0
2018-05-03T02:20:34.345Z,0
2018-05-03T02:21:14.836Z,0
2018-05-03T02:21:55.380Z,0
2018-05-03T02:22:36.392Z,0
2018-05-03T02:23:16.327Z,0
2018-05-03T02:23:56.828Z,0
2018-05-03T02:24:37.298Z,4
2018-05-03T02:25:17.796Z,0
2018-05-03T02:25:58.299Z,4
2018-05-03T02:26:38.817Z,0
2018-05-03T02:27:19.291Z,0
2018-05-03T02:27:59.766Z,0
2018-05-03T02:28:40.265Z,0
2018-05-03T02:29:20.757Z,0
2018-05-03T02:30:01.265Z,0
2018-05-03T02:30:41.754Z,0
2018-05-03T02:31:22.222Z,0
2018-05-03T02:32:02.774Z,0
2018-05-03T02:32:43.271Z,0
2018-05-03T02:33:23.762Z,0
2018-05-03T02:34:04.262Z,0
2018-05-03T02:34:44.736Z,0
2018-05-03T02:35:25.233Z,0
2018-05-03T02:36:05.738Z,0
2018-05-03T02:36:46.223Z,0
2018-05-03T02:37:26.739Z,0
2018-05-03T02:38:07.273Z,0
2018-05-03T02:38:48.265Z,0
2018-05-03T02:39:28.785Z,0
2018-05-03T02:40:09.263Z,0
2018-05-03T02:40:49.762Z,0
2018-05-03T02:41:30.272Z,0
2018-05-03T02:42:10.748Z,0
2018-05-03T02:42:51.263Z,0
2018-05-03T02:43:31.758Z,0
2018-05-03T02:44:12.223Z,0
2018-05-03T02:44:52.758Z,0
2018-05-03T02:45:33.215Z,0
2018-05-03T02:46:13.713Z,0
2018-05-03T02:46:54.911Z,0
2018-05-03T02:47:34.717Z,0
2018-05-03T02:48:15.194Z,0
2018-05-03T02:48:55.712Z,0
2018-05-03T02:49:36.191Z,0
2018-05-03T02:50:16.716Z,0
2018-05-03T02:50:57.212Z,0
2018-05-03T02:51:37.677Z,0
2018-05-03T02:52:18.211Z,0
2018-05-03T02:52:58.707Z,0
2018-05-03T02:53:39.178Z,4
2018-05-03T02:54:19.722Z,4
2018-05-03T02:55:00.270Z,4
2018-05-03T02:55:40.808Z,4
2018-05-03T02:56:21.231Z,4
2018-05-03T02:57:01.740Z,4
2018-05-03T02:57:42.258Z,4
2018-05-03T02:58:23.011Z,4
2018-05-03T02:59:03.526Z,4
2018-05-03T02:59:44.017Z,4
2018-05-03T03:00:25.288Z,4
2018-05-03T03:01:05.779Z,0
2018-05-03T03:01:46.282Z,4
2018-05-03T03:02:26.833Z,4
2018-05-03T03:03:07.344Z,0
2018-05-03T03:03:47.873Z,0
2018-05-03T03:04:28.399Z,4
2018-05-03T03:05:08.929Z,4
2018-05-03T03:05:49.451Z,4
2018-05-03T03:06:29.983Z,4
2018-05-03T03:07:10.502Z,4
2018-05-03T03:07:51.032Z,4
2018-05-03T03:08:31.568Z,4
2018-05-03T03:09:12.079Z,0
2018-05-03T03:09:52.610Z,4
2018-05-03T03:10:33.142Z,4
2018-05-03T03:11:13.675Z,4
2018-05-03T03:11:54.194Z,4
2018-05-03T03:12:35.264Z,4
2018-05-03T03:13:15.785Z,4
2018-05-03T03:13:56.319Z,0
2018-05-03T03:14:36.831Z,0
2018-05-03T03:15:17.360Z,0
2018-05-03T03:15:57.879Z,0
2018-05-03T03:16:38.408Z,0
2018-05-03T03:17:18.941Z,0
2018-05-03T03:17:59.472Z,0
2018-05-03T03:18:40.013Z,0
2018-05-03T03:19:20.513Z,0
2018-05-03T03:20:01.012Z,8
2018-05-03T03:20:41.499Z,0
2018-05-03T03:21:22.015Z,0
2018-05-03T03:22:02.868Z,0
2018-05-03T03:22:43.217Z,0
2018-05-03T03:23:23.935Z,0
2018-05-03T03:24:04.462Z,0
2018-05-03T03:24:44.982Z,8
2018-05-03T03:25:25.511Z,4
2018-05-03T03:26:06.038Z,0
2018-05-03T03:26:46.522Z,0
2018-05-03T03:27:27.029Z,0
2018-05-03T03:28:07.560Z,4
2018-05-03T03:28:48.153Z,8
2018-05-03T03:29:28.667Z,8
2018-05-03T03:30:09.174Z,8
2018-05-03T03:30:49.995Z,0
2018-05-03T03:31:30.491Z,0
2018-05-03T03:32:11.459Z,4
2018-05-03T03:32:51.963Z,4
2018-05-03T03:33:33.405Z,4
2018-05-03T03:34:13.297Z,4
2018-05-03T03:34:53.852Z,8
2018-05-03T03:35:34.530Z,4
2018-05-03T03:36:15.013Z,4
2018-05-03T03:36:55.553Z,8
2018-05-03T03:37:36.071Z,8
2018-05-03T03:38:16.548Z,4
2018-05-03T03:38:57.016Z,8
2018-05-03T03:39:37.489Z,8
2018-05-03T03:40:18.011Z,8
2018-05-03T03:40:58.470Z,8
2018-05-03T03:41:38.995Z,8
2018-05-03T03:42:19.529Z,8
2018-05-03T03:43:00.064Z,12
2018-05-03T03:43:40.584Z,12
2018-05-03T03:44:21.078Z,12
2018-05-03T03:45:01.592Z,12
2018-05-03T03:45:42.117Z,16
2018-05-03T03:46:22.558Z,16
2018-05-03T03:47:03.081Z,20
2018-05-03T03:47:43.556Z,24
2018-05-03T03:48:25.265Z,24
2018-05-03T03:49:06.755Z,28
2018-05-03T03:49:50.212Z,32
2018-05-03T03:50:57.920Z,36
2018-05-03T03:51:38.393Z,40
2018-05-03T03:52:18.894Z,48
2018-05-03T03:52:59.917Z,52
2018-05-03T03:53:39.917Z,56
2018-05-03T03:54:20.464Z,64
2018-05-03T03:55:00.941Z,72
2018-05-03T03:55:41.466Z,72
2018-05-03T03:56:22.486Z,76
2018-05-03T03:57:03.030Z,76
2018-05-03T03:57:43.516Z,76
2018-05-03T03:58:24.270Z,80
2018-05-03T03:59:05.453Z,80
2018-05-03T03:59:45.290Z,76
2018-05-03T04:00:25.829Z,72
2018-05-03T04:01:06.325Z,72
2018-05-03T04:01:46.851Z,76
2018-05-03T04:02:27.381Z,76
2018-05-03T04:03:07.912Z,72
2018-05-03T04:03:48.430Z,72
2018-05-03T04:04:28.945Z,72
2018-05-03T04:05:09.471Z,72
2018-05-03T04:05:50.056Z,68
2018-05-03T04:06:30.558Z,68
2018-05-03T04:07:11.092Z,68
2018-05-03T04:07:51.601Z,76
2018-05-03T04:08:32.127Z,72
2018-05-03T04:09:12.659Z,76
2018-05-03T04:09:53.189Z,76
2018-05-03T04:10:33.722Z,76
2018-05-03T04:11:14.237Z,80
2018-05-03T04:11:54.768Z,80
2018-05-03T04:12:35.295Z,84
2018-05-03T04:13:15.831Z,88
2018-05-03T04:13:56.337Z,92
2018-05-03T04:14:36.890Z,96
2018-05-03T04:15:17.911Z,96
2018-05-03T04:15:57.924Z,100
2018-05-03T04:16:38.449Z,100
2018-05-03T04:17:18.980Z,112
2018-05-03T04:17:59.507Z,116
2018-05-03T04:18:40.029Z,124
2018-05-03T04:19:20.560Z,132
2018-05-03T04:20:01.088Z,140
2018-05-03T04:20:41.613Z,156
2018-05-03T04:21:22.138Z,168
2018-05-03T04:22:02.659Z,184
2018-05-03T04:22:43.184Z,212
2018-05-03T04:23:23.715Z,232
2018-05-03T04:24:04.225Z,264
2018-05-03T04:24:44.762Z,292
2018-05-03T04:25:25.885Z,320
2018-05-03T04:26:06.403Z,340
2018-05-03T04:26:46.932Z,356
2018-05-03T04:27:27.460Z,364
2018-05-03T04:28:07.987Z,368
2018-05-03T04:28:48.517Z,368
2018-05-03T04:29:29.044Z,360
2018-05-03T04:30:09.564Z,356
2018-05-03T04:30:50.106Z,348
2018-05-03T04:31:30.635Z,344
2018-05-03T04:32:11.169Z,336
2018-05-03T04:32:51.693Z,336
2018-05-03T04:33:32.217Z,332
2018-05-03T04:34:12.750Z,332
2018-05-03T04:34:53.280Z,336
2018-05-03T04:35:33.811Z,344
2018-05-03T04:36:14.340Z,356
2018-05-03T04:36:54.869Z,368
2018-05-03T04:37:35.394Z,388
2018-05-03T04:38:15.921Z,408
2018-05-03T04:38:56.447Z,424
2018-05-03T04:39:36.974Z,444
2018-05-03T04:40:17.509Z,460
2018-05-03T04:40:58.030Z,476
2018-05-03T04:41:39.416Z,496
2018-05-03T04:42:19.060Z,516
2018-05-03T04:42:59.651Z,540
2018-05-03T04:43:40.122Z,556
2018-05-03T04:44:20.658Z,572
2018-05-03T04:45:01.294Z,588
2018-05-03T04:45:41.740Z,576
2018-05-03T04:46:22.916Z,600
2018-05-03T04:47:03.678Z,628
2018-05-03T04:47:44.203Z,668
2018-05-03T04:48:24.722Z,712
2018-05-03T04:49:05.249Z,768
2018-05-03T04:49:45.777Z,832
2018-05-03T04:50:26.304Z,896
2018-05-03T04:51:06.834Z,948
2018-05-03T04:51:47.373Z,996
2018-05-03T04:52:27.892Z,1032
2018-05-03T04:53:08.418Z,1064
2018-05-03T04:53:48.939Z,1096
2018-05-03T04:54:29.471Z,1128
2018-05-03T04:55:10.001Z,1176
2018-05-03T04:55:50.530Z,1244
2018-05-03T04:56:31.054Z,1328
2018-05-03T04:57:11.588Z,1420
2018-05-03T04:57:52.110Z,1520
2018-05-03T04:58:33.400Z,1628
2018-05-03T04:59:13.905Z,1752
2018-05-03T04:59:54.399Z,1884
2018-05-03T05:00:35.703Z,2020
2018-05-03T05:01:16.263Z,2144
2018-05-03T05:01:56.792Z,2260
2018-05-03T05:02:37.318Z,2352
2018-05-03T05:03:17.842Z,2416
2018-05-03T05:03:58.360Z,2484
2018-05-03T05:04:39.394Z,2536
2018-05-03T05:05:19.837Z,2572
2018-05-03T05:06:00.361Z,2596
2018-05-03T05:06:40.891Z,2600
2018-05-03T05:07:21.415Z,2592
2018-05-03T05:08:01.942Z,2584
2018-05-03T05:08:43.440Z,2584
2018-05-03T05:09:24.919Z,2580
2018-05-03T05:10:04.505Z,2572
2018-05-03T05:10:45.034Z,2572
2018-05-03T05:11:25.558Z,2588
2018-05-03T05:12:06.082Z,2616
2018-05-03T05:12:46.613Z,2660
2018-05-03T05:13:27.143Z,2712
2018-05-03T05:14:07.670Z,2772
2018-05-03T05:14:48.199Z,2824
2018-05-03T05:15:28.726Z,2864
2018-05-03T05:16:09.259Z,2888
2018-05-03T05:16:49.785Z,2900
2018-05-03T05:17:30.306Z,2912
2018-05-03T05:18:10.837Z,2940
2018-05-03T05:18:51.344Z,2980
2018-05-03T05:19:31.876Z,3032
2018-05-03T05:20:12.398Z,3092
2018-05-03T05:20:52.928Z,3152
2018-05-03T05:21:33.467Z,3216
2018-05-03T05:22:13.984Z,3292
2018-05-03T05:22:54.511Z,3368
2018-05-03T05:23:35.042Z,3448
2018-05-03T05:24:15.651Z,3508
2018-05-03T05:24:56.924Z,3528
2018-05-03T05:25:36.622Z,3508
2018-05-03T05:26:17.146Z,3476
2018-05-03T05:26:57.675Z,3440
2018-05-03T05:27:38.200Z,3376
2018-05-03T05:28:18.724Z,3308
2018-05-03T05:28:59.261Z,3240
2018-05-03T05:29:39.795Z,3164
2018-05-03T05:30:20.325Z,3068
2018-05-03T05:31:00.855Z,2924
2018-05-03T05:31:41.384Z,2752
2018-05-03T05:32:21.910Z,2560
2018-05-03T05:33:02.428Z,2364
2018-05-03T05:33:42.946Z,2184
2018-05-03T05:34:23.466Z,2040
2018-05-03T05:35:03.998Z,1940
2018-05-03T05:35:44.526Z,1860
2018-05-03T05:36:25.055Z,1784
2018-05-03T05:37:05.587Z,1704
2018-05-03T05:37:46.114Z,1672
2018-05-03T05:38:26.681Z,1668
2018-05-03T05:39:07.152Z,1704
2018-05-03T05:39:47.683Z,1748
2018-05-03T05:40:28.203Z,1808
2018-05-03T05:41:08.734Z,1852
2018-05-03T05:41:49.928Z,1888
2018-05-03T05:42:29.779Z,1912
2018-05-03T05:43:10.311Z,1924
2018-05-03T05:43:50.837Z,1932
2018-05-03T05:44:31.370Z,2124
2018-05-03T05:45:11.912Z,2176
2018-05-03T05:45:52.405Z,2256
2018-05-03T05:46:32.907Z,2368
2018-05-03T05:47:13.417Z,2496
2018-05-03T05:47:53.930Z,2656
2018-05-03T05:48:34.429Z,2828
2018-05-03T05:49:14.942Z,2976
2018-05-03T05:49:55.436Z,3072
2018-05-03T05:50:35.948Z,3076
2018-05-03T05:51:16.515Z,3004
2018-05-03T05:51:56.909Z,2884
2018-05-03T05:52:37.409Z,2792
2018-05-03T05:53:17.893Z,2824
2018-05-03T05:53:58.365Z,2976
2018-05-03T05:54:38.872Z,3180
2018-05-03T05:55:19.328Z,3400
2018-05-03T05:55:59.847Z,3612
2018-05-03T05:56:40.412Z,3860
2018-05-03T05:57:20.850Z,4160
2018-05-03T05:58:01.331Z,4396
2018-05-03T05:58:41.814Z,4572
2018-05-03T05:59:22.309Z,4676
2018-05-03T06:00:02.835Z,4720
2018-05-03T06:00:43.354Z,4760
2018-05-03T06:01:23.825Z,4856
2018-05-03T06:02:04.328Z,4972
2018-05-03T06:02:45.429Z,5116
2018-05-03T06:03:25.304Z,5272
2018-05-03T06:04:05.793Z,5408
2018-05-03T06:04:46.953Z,5424
2018-05-03T06:05:26.832Z,5300
2018-05-03T06:06:07.315Z,5076
2018-05-03T06:06:47.830Z,4848
2018-05-03T06:07:28.298Z,4620
2018-05-03T06:08:08.840Z,4516
2018-05-03T06:08:49.289Z,4500
2018-05-03T06:09:29.805Z,4488
2018-05-03T06:10:11.281Z,4464
2018-05-03T06:10:51.774Z,4396
2018-05-03T06:11:32.261Z,4308
2018-05-03T06:12:12.843Z,4228
2018-05-03T06:12:53.299Z,4140
2018-05-03T06:13:33.798Z,4012
2018-05-03T06:14:14.293Z,3872
2018-05-03T06:14:54.815Z,3728
2018-05-03T06:15:36.325Z,3616
2018-05-03T06:16:17.405Z,3532
2018-05-03T06:16:57.923Z,3420
2018-05-03T06:17:38.443Z,3296
2018-05-03T06:18:18.941Z,3188
2018-05-03T06:18:59.448Z,3096
2018-05-03T06:19:39.964Z,3020
2018-05-03T06:20:20.466Z,2976
2018-05-03T06:21:00.974Z,2964
2018-05-03T06:21:41.505Z,2964
2018-05-03T06:22:22.046Z,2956
2018-05-03T06:23:02.502Z,2960
2018-05-03T06:23:43.936Z,2976
2018-05-03T06:24:23.523Z,3000
2018-05-03T06:25:03.994Z,3052
2018-05-03T06:25:44.478Z,3136
2018-05-03T06:26:25.019Z,3244
2018-05-03T06:27:05.522Z,3332
2018-05-03T06:27:46.023Z,3368
2018-05-03T06:28:26.510Z,3372
2018-05-03T06:29:07.024Z,3360
2018-05-03T06:29:47.491Z,3356
2018-05-03T06:30:28.012Z,3388
2018-05-03T06:31:08.481Z,3432
2018-05-03T06:31:48.994Z,3508
2018-05-03T06:32:29.524Z,3604
2018-05-03T06:33:10.012Z,3664
2018-05-03T06:33:50.531Z,3652
2018-05-03T06:34:31.032Z,3600
2018-05-03T06:35:11.520Z,3596
2018-05-03T06:35:52.030Z,3584
2018-05-03T06:36:32.560Z,3516
2018-05-03T06:37:13.048Z,3376
2018-05-03T06:37:53.546Z,3216
2018-05-03T06:38:34.111Z,3064
2018-05-03T06:39:14.583Z,2960
2018-05-03T06:39:55.076Z,2892
2018-05-03T06:40:35.607Z,2848
2018-05-03T06:41:16.938Z,2596
2018-05-03T06:41:56.619Z,2584
2018-05-03T06:42:37.152Z,2600
2018-05-03T06:43:17.677Z,2640
2018-05-03T06:43:58.203Z,2684
2018-05-03T06:44:38.733Z,2736
2018-05-03T06:45:19.303Z,2792
2018-05-03T06:45:59.784Z,2816
2018-05-03T06:46:41.200Z,2804
2018-05-03T06:47:21.723Z,2760
2018-05-03T06:48:02.251Z,2696
2018-05-03T06:48:42.779Z,2652
2018-05-03T06:49:23.315Z,2628
2018-05-03T06:50:03.839Z,2636
2018-05-03T06:50:44.947Z,2696
2018-05-03T06:51:24.888Z,2804
2018-05-03T06:52:05.398Z,2956
2018-05-03T06:52:45.931Z,3148
2018-05-03T06:53:26.461Z,3376
2018-05-03T06:54:06.986Z,3624
2018-05-03T06:54:47.519Z,3904
2018-05-03T06:55:28.061Z,4240
2018-05-03T06:56:08.582Z,4628
2018-05-03T06:56:49.096Z,5084
2018-05-03T06:57:29.620Z,5612
2018-05-03T06:58:10.149Z,6160
2018-05-03T06:58:50.920Z,6812
2018-05-03T06:59:31.447Z,7468
2018-05-03T07:00:12.442Z,7960
2018-05-03T07:00:52.482Z,8372
2018-05-03T07:01:32.993Z,8656
2018-05-03T07:02:13.523Z,8796
2018-05-03T07:02:54.042Z,8820
2018-05-03T07:03:34.566Z,8760
2018-05-03T07:04:15.231Z,9172
2018-05-03T07:04:55.626Z,8692
2018-05-03T07:05:36.158Z,8276
2018-05-03T07:06:16.683Z,8192
2018-05-03T07:06:57.211Z,8148
2018-05-03T07:07:37.731Z,8248
2018-05-03T07:08:18.809Z,8548
2018-05-03T07:08:59.336Z,9052
2018-05-03T07:09:39.863Z,9884
2018-05-03T07:10:20.390Z,11024
2018-05-03T07:11:00.932Z,12236
2018-05-03T07:11:41.448Z,13300
2018-05-03T07:12:21.983Z,14088
2018-05-03T07:13:02.515Z,14864
2018-05-03T07:13:43.028Z,15968
2018-05-03T07:14:23.595Z,17504
2018-05-03T07:15:04.100Z,28672
2018-05-03T07:15:44.632Z,18528
2018-05-03T07:16:25.233Z,18752
2018-05-03T07:17:05.687Z,19808
2018-05-03T07:17:46.221Z,22272
2018-05-03T07:18:26.753Z,21248
2018-05-03T07:19:07.283Z,21088
2018-05-03T07:19:47.811Z,21824
2018-05-03T07:20:28.341Z,22688
2018-05-03T07:21:08.870Z,26560
2018-05-03T07:21:49.403Z,23264
2018-05-03T07:22:30.525Z,22688
2018-05-03T07:23:11.047Z,22368
2018-05-03T07:23:51.599Z,22144
2018-05-03T07:24:32.103Z,22112
2018-05-03T07:25:12.631Z,22720
2018-05-03T07:25:53.154Z,23552
2018-05-03T07:26:33.896Z,25728
2018-05-03T07:27:14.417Z,20224
2018-05-03T07:27:54.940Z,19104
2018-05-03T07:28:35.467Z,18688
2018-05-03T07:29:16.056Z,19008
2018-05-03T07:29:57.080Z,18688
2018-05-03T07:30:37.619Z,18752
2018-05-03T07:31:18.142Z,18528
2018-05-03T07:31:58.671Z,18048
2018-05-03T07:32:39.205Z,17216
2018-05-03T07:33:19.745Z,16224
2018-05-03T07:34:00.275Z,15052
2018-05-03T07:34:40.810Z,14064
2018-05-03T07:35:21.339Z,13252
2018-05-03T07:36:01.879Z,12856
2018-05-03T07:36:42.415Z,12904
2018-05-03T07:37:22.929Z,13420
2018-05-03T07:38:03.465Z,14364
2018-05-03T07:38:43.998Z,15064
2018-05-03T07:39:24.519Z,15456
2018-05-03T07:40:05.051Z,16416
2018-05-03T07:40:45.697Z,17888
2018-05-03T07:41:26.116Z,18080
2018-05-03T07:42:06.646Z,17216
2018-05-03T07:42:47.184Z,17056
2018-05-03T07:43:27.715Z,17184
2018-05-03T07:44:08.249Z,17344
2018-05-03T07:44:48.768Z,18272
2018-05-03T07:45:29.299Z,21184
2018-05-03T07:46:09.835Z,31424
2018-05-03T07:46:50.367Z,29824
2018-05-03T07:47:30.895Z,20960
2018-05-03T07:48:11.421Z,20224
2018-05-03T07:48:52.463Z,19008
2018-05-03T07:49:32.468Z,18208
2018-05-03T07:50:13.008Z,17824
2018-05-03T07:50:53.541Z,17408
2018-05-03T07:51:34.078Z,16960
2018-05-03T07:52:14.610Z,16352
2018-05-03T07:52:55.143Z,15648
2018-05-03T07:53:35.675Z,14740
2018-05-03T07:54:16.211Z,14000
2018-05-03T07:54:56.750Z,13232
2018-05-03T07:55:37.286Z,12464
2018-05-03T07:56:17.824Z,11736
2018-05-03T07:56:58.356Z,11144
2018-05-03T07:57:38.885Z,10756
2018-05-03T07:58:19.837Z,10592
2018-05-03T07:59:00.329Z,10680
2018-05-03T07:59:40.858Z,11028
2018-05-03T08:00:21.394Z,11632
2018-05-03T08:01:02.975Z,12432
2018-05-03T08:01:43.470Z,13352
2018-05-03T08:02:24.594Z,14368
2018-05-03T08:03:05.127Z,15552
2018-05-03T08:03:45.661Z,16608
2018-05-03T08:04:26.969Z,17280
2018-05-03T08:05:06.717Z,17760
2018-05-03T08:05:47.247Z,17824
2018-05-03T08:06:27.778Z,17312
2018-05-03T08:07:08.314Z,16832
2018-05-03T08:07:48.850Z,16608
2018-05-03T08:08:29.372Z,16704
2018-05-03T08:09:09.917Z,17024
2018-05-03T08:09:50.454Z,17504
2018-05-03T08:10:30.983Z,18624
2018-05-03T08:11:11.516Z,19040
2018-05-03T08:11:52.038Z,19328
2018-05-03T08:12:32.620Z,20288
2018-05-03T08:13:13.104Z,18784
2018-05-03T08:13:53.645Z,18240
2018-05-03T08:14:34.174Z,17792
2018-05-03T08:15:14.707Z,17408
2018-05-03T08:15:55.239Z,16864
2018-05-03T08:16:35.771Z,16320
2018-05-03T08:17:16.311Z,16000
2018-05-03T08:17:56.856Z,15968
2018-05-03T08:18:37.381Z,16416
2018-05-03T08:19:17.917Z,16544
2018-05-03T08:19:58.449Z,17152
2018-05-03T08:20:39.474Z,18272
2018-05-03T08:21:19.975Z,20064
2018-05-03T08:22:00.982Z,22304
2018-05-03T08:22:41.516Z,23520
2018-05-03T08:23:22.084Z,25216
2018-05-03T08:24:02.583Z,26400
2018-05-03T08:24:43.111Z,27648
2018-05-03T08:25:23.645Z,26784
2018-05-03T08:26:04.186Z,26976
2018-05-03T08:26:44.708Z,30240
2018-05-03T08:27:25.242Z,28128
2018-05-03T08:28:05.773Z,29824
2018-05-03T08:28:46.308Z,31264
2018-05-03T08:29:26.847Z,31488
2018-05-03T08:30:07.378Z,31168
2018-05-03T08:30:48.480Z,32288
2018-05-03T08:31:28.444Z,33536
2018-05-03T08:32:08.963Z,39136
2018-05-03T08:32:49.496Z,42496
2018-05-03T08:33:30.038Z,49024
2018-05-03T08:34:10.563Z,40928
2018-05-03T08:34:51.100Z,40032
2018-05-03T08:35:31.625Z,37792
2018-05-03T08:36:12.155Z,42496
2018-05-03T08:36:52.695Z,37088
2018-05-03T08:37:33.226Z,35840
2018-05-03T08:38:13.766Z,35328
2018-05-03T08:38:54.297Z,39104
2018-05-03T08:39:34.837Z,39456
2018-05-03T08:40:15.373Z,44768
2018-05-03T08:40:55.909Z,36288
2018-05-03T08:41:36.450Z,51840
2018-05-03T08:42:16.987Z,55968
2018-05-03T08:42:57.527Z,61280
2018-05-03T08:43:38.055Z,60704
2018-05-03T08:44:18.595Z,54432
2018-05-03T08:44:59.112Z,53376
2018-05-03T08:45:39.655Z,55040
2018-05-03T08:46:20.204Z,54816
2018-05-03T08:47:01.488Z,48768
2018-05-03T08:47:41.270Z,59616
2018-05-03T08:48:21.804Z,59264
2018-05-03T08:49:02.347Z,40032
2018-05-03T08:49:42.888Z,34784
2018-05-03T08:50:23.429Z,34208
2018-05-03T08:51:03.969Z,32960
2018-05-03T08:51:44.992Z,36672
2018-05-03T08:52:25.045Z,49568
2018-05-03T08:53:05.588Z,44384
2018-05-03T08:53:46.131Z,33696
2018-05-03T08:54:26.670Z,31584
2018-05-03T08:55:07.217Z,37888
2018-05-03T08:55:47.763Z,43008
2018-05-03T08:56:28.292Z,31136
2018-05-03T08:57:08.863Z,28064
2018-05-03T08:57:53.312Z,28288
2018-05-03T08:58:36.921Z,28512
2018-05-03T08:59:17.457Z,31584
2018-05-03T08:59:58.002Z,42528
2018-05-03T09:00:38.537Z,37184
2018-05-03T09:01:19.085Z,30144
2018-05-03T09:01:59.622Z,36352
2018-05-03T09:02:40.186Z,39456
2018-05-03T09:03:20.719Z,37120
2018-05-03T09:04:02.001Z,37120
2018-05-03T09:04:41.789Z,42528
2018-05-03T09:05:22.330Z,51584
2018-05-03T09:06:02.865Z,43328
2018-05-03T09:06:43.405Z,35360
2018-05-03T09:07:24.506Z,33056
2018-05-03T09:08:05.132Z,32544
2018-05-03T09:08:45.678Z,32864
2018-05-03T09:09:26.220Z,37664
2018-05-03T09:10:07.505Z,54240
2018-05-03T09:10:47.288Z,46176
2018-05-03T09:11:27.831Z,42944
2018-05-03T09:12:08.372Z,46112
2018-05-03T09:12:48.915Z,55008
2018-05-03T09:13:29.453Z,43488
2018-05-03T09:14:09.988Z,37664
2018-05-03T09:14:50.532Z,37088
2018-05-03T09:15:31.072Z,52480
2018-05-03T09:16:11.612Z,51264
2018-05-03T09:16:52.155Z,44992
2018-05-03T09:17:32.675Z,39168
2018-05-03T09:18:13.224Z,31936
2018-05-03T09:18:53.760Z,31680
2018-05-03T09:19:34.303Z,26848
2018-05-03T09:20:14.857Z,24672
2018-05-03T09:20:55.387Z,23552